sensor_id;sensor_type;location;lat;lon;timestamp;temperature;humidity
13850;DHT22;6995;52.618;13.488;2023-05-29T00:02:11;14.40;1.00
13850;DHT22;6995;52.618;13.488;2023-05-29T00:04:37;14.30;1.00
13850;DHT22;6995;52.618;13.488;2023-05-29T00:07:03;14.30;1.00
13850;DHT22;6995;52.618;13.488;2023-05-29T00:09:28;14.20;1.00
13850;DHT22;6995;52.618;13.488;2023-05-29T00:11:55;14.10;1.00
13850;DHT22;6995;52.618;13.488;2023-05-29T00:14:21;14.10;1.00
13850;DHT22;6995;52.618;13.488;2023-05-29T00:16:48;14.00;1.00
13850;DHT22;6995;52.618;13.488;2023-05-29T00:19:14;14.00;1.00
13850;DHT22;6995;52.618;13.488;2023-05-29T00:21:42;14.00;1.00
13850;DHT22;6995;52.618;13.488;2023-05-29T00:24:08;13.90;1.00
13850;DHT22;6995;52.618;13.488;2023-05-29T00:26:34;13.90;1.00
13850;DHT22;6995;52.618;13.488;2023-05-29T00:29:00;13.90;1.00
13850;DHT22;6995;52.618;13.488;2023-05-29T00:31:26;13.90;1.00
13850;DHT22;6995;52.618;13.488;2023-05-29T00:33:51;13.80;1.00
13850;DHT22;6995;52.618;13.488;2023-05-29T00:36:17;13.70;1.00
13850;DHT22;6995;52.618;13.488;2023-05-29T00:38:42;13.70;1.00
13850;DHT22;6995;52.618;13.488;2023-05-29T00:41:14;13.70;1.00
13850;DHT22;6995;52.618;13.488;2023-05-29T00:43:40;13.70;1.00
13850;DHT22;6995;52.618;13.488;2023-05-29T00:46:05;13.80;1.00
13850;DHT22;6995;52.618;13.488;2023-05-29T00:48:31;13.80;1.00
13850;DHT22;6995;52.618;13.488;2023-05-29T00:50:57;13.80;1.00
13850;DHT22;6995;52.618;13.488;2023-05-29T00:53:23;13.80;1.00
13850;DHT22;6995;52.618;13.488;2023-05-29T00:55:49;13.80;1.00
13850;DHT22;6995;52.618;13.488;2023-05-29T00:58:15;13.80;1.00
13850;DHT22;6995;52.618;13.488;2023-05-29T01:00:41;13.80;1.00
13850;DHT22;6995;52.618;13.488;2023-05-29T01:03:08;13.70;1.00
13850;DHT22;6995;52.618;13.488;2023-05-29T01:05:34;13.70;1.00
13850;DHT22;6995;52.618;13.488;2023-05-29T01:08:02;13.60;1.00
13850;DHT22;6995;52.618;13.488;2023-05-29T01:10:28;13.50;1.00
13850;DHT22;6995;52.618;13.488;2023-05-29T01:13:21;13.40;1.00
13850;DHT22;6995;52.618;13.488;2023-05-29T01:15:52;13.30;1.00
13850;DHT22;6995;52.618;13.488;2023-05-29T01:26:18;13.10;1.00
13850;DHT22;6995;52.618;13.488;2023-05-29T01:28:48;13.00;1.00
13850;DHT22;6995;52.618;13.488;2023-05-29T01:31:20;13.10;1.00
13850;DHT22;6995;52.618;13.488;2023-05-29T01:33:57;13.00;2.00
13850;DHT22;6995;52.618;13.488;2023-05-29T01:36:24;13.00;1.10
13850;DHT22;6995;52.618;13.488;2023-05-29T01:38:51;13.00;2.40
13850;DHT22;6995;52.618;13.488;2023-05-29T01:41:18;13.00;6.60
13850;DHT22;6995;52.618;13.488;2023-05-29T01:43:45;12.90;4.00
13850;DHT22;6995;52.618;13.488;2023-05-29T01:46:13;12.80;9.50
13850;DHT22;6995;52.618;13.488;2023-05-29T01:48:42;12.80;11.30
13850;DHT22;6995;52.618;13.488;2023-05-29T01:51:09;12.70;13.10
13850;DHT22;6995;52.618;13.488;2023-05-29T01:53:38;12.70;17.00
13850;DHT22;6995;52.618;13.488;2023-05-29T01:56:05;12.70;17.40
13850;DHT22;6995;52.618;13.488;2023-05-29T01:58:31;12.70;16.20
13850;DHT22;6995;52.618;13.488;2023-05-29T02:00:58;12.60;16.40
13850;DHT22;6995;52.618;13.488;2023-05-29T02:03:23;12.60;17.90
13850;DHT22;6995;52.618;13.488;2023-05-29T02:05:50;12.70;17.40
13850;DHT22;6995;52.618;13.488;2023-05-29T02:08:15;12.60;18.70
13850;DHT22;6995;52.618;13.488;2023-05-29T02:10:41;12.50;17.40
13850;DHT22;6995;52.618;13.488;2023-05-29T02:13:07;12.50;26.20
13850;DHT22;6995;52.618;13.488;2023-05-29T02:15:32;12.30;26.70
13850;DHT22;6995;52.618;13.488;2023-05-29T02:17:58;12.20;30.10
13850;DHT22;6995;52.618;13.488;2023-05-29T02:20:26;12.30;26.40
13850;DHT22;6995;52.618;13.488;2023-05-29T02:22:52;12.20;32.00
13850;DHT22;6995;52.618;13.488;2023-05-29T02:25:18;12.20;33.10
13850;DHT22;6995;52.618;13.488;2023-05-29T02:27:44;12.20;30.80
13850;DHT22;6995;52.618;13.488;2023-05-29T02:30:09;12.20;31.20
13850;DHT22;6995;52.618;13.488;2023-05-29T02:32:36;12.20;32.80
13850;DHT22;6995;52.618;13.488;2023-05-29T02:35:02;12.10;34.60
13850;DHT22;6995;52.618;13.488;2023-05-29T02:37:28;12.10;37.40
13850;DHT22;6995;52.618;13.488;2023-05-29T02:39:53;12.00;39.50
13850;DHT22;6995;52.618;13.488;2023-05-29T02:42:19;11.90;44.90
13850;DHT22;6995;52.618;13.488;2023-05-29T02:44:44;11.80;49.20
13850;DHT22;6995;52.618;13.488;2023-05-29T02:47:11;11.70;61.30
13850;DHT22;6995;52.618;13.488;2023-05-29T02:49:37;11.60;72.00
13850;DHT22;6995;52.618;13.488;2023-05-29T02:52:02;11.60;70.70
13850;DHT22;6995;52.618;13.488;2023-05-29T02:54:28;11.60;73.90
13850;DHT22;6995;52.618;13.488;2023-05-29T02:56:54;11.70;64.50
13850;DHT22;6995;52.618;13.488;2023-05-29T02:59:19;11.70;99.90
13850;DHT22;6995;52.618;13.488;2023-05-29T03:01:45;11.70;67.00
13850;DHT22;6995;52.618;13.488;2023-05-29T03:04:12;11.70;64.90
13850;DHT22;6995;52.618;13.488;2023-05-29T03:06:38;11.70;64.00
13850;DHT22;6995;52.618;13.488;2023-05-29T03:09:04;11.70;62.30
13850;DHT22;6995;52.618;13.488;2023-05-29T03:11:33;11.70;59.50
13850;DHT22;6995;52.618;13.488;2023-05-29T03:14:01;11.80;56.50
13850;DHT22;6995;52.618;13.488;2023-05-29T03:16:26;11.80;53.00
13850;DHT22;6995;52.618;13.488;2023-05-29T03:18:54;11.90;49.50
13850;DHT22;6995;52.618;13.488;2023-05-29T03:21:20;11.90;46.40
13850;DHT22;6995;52.618;13.488;2023-05-29T03:23:46;11.80;45.80
13850;DHT22;6995;52.618;13.488;2023-05-29T03:26:12;11.80;48.10
13850;DHT22;6995;52.618;13.488;2023-05-29T03:28:38;11.80;45.30
13850;DHT22;6995;52.618;13.488;2023-05-29T03:31:04;11.90;43.30
13850;DHT22;6995;52.618;13.488;2023-05-29T03:33:30;11.90;41.60
13850;DHT22;6995;52.618;13.488;2023-05-29T03:35:56;11.90;40.20
13850;DHT22;6995;52.618;13.488;2023-05-29T03:38:22;12.00;38.00
13850;DHT22;6995;52.618;13.488;2023-05-29T03:40:48;12.00;38.20
13850;DHT22;6995;52.618;13.488;2023-05-29T03:43:14;12.10;38.00
13850;DHT22;6995;52.618;13.488;2023-05-29T03:45:39;12.20;34.60
13850;DHT22;6995;52.618;13.488;2023-05-29T03:48:05;12.30;33.30
13850;DHT22;6995;52.618;13.488;2023-05-29T03:50:31;12.30;30.80
13850;DHT22;6995;52.618;13.488;2023-05-29T03:52:56;12.40;30.80
13850;DHT22;6995;52.618;13.488;2023-05-29T03:55:22;12.50;25.00
13850;DHT22;6995;52.618;13.488;2023-05-29T03:57:48;12.50;26.00
13850;DHT22;6995;52.618;13.488;2023-05-29T04:00:14;12.50;24.80
13850;DHT22;6995;52.618;13.488;2023-05-29T04:02:40;12.60;22.40
13850;DHT22;6995;52.618;13.488;2023-05-29T04:05:07;12.60;21.20
13850;DHT22;6995;52.618;13.488;2023-05-29T04:07:35;12.70;20.70
13850;DHT22;6995;52.618;13.488;2023-05-29T04:10:02;12.80;17.00
13850;DHT22;6995;52.618;13.488;2023-05-29T04:12:28;12.90;16.60
13850;DHT22;6995;52.618;13.488;2023-05-29T04:14:53;13.00;12.40
13850;DHT22;6995;52.618;13.488;2023-05-29T04:17:19;13.00;10.30
13850;DHT22;6995;52.618;13.488;2023-05-29T04:19:45;13.00;12.80
13850;DHT22;6995;52.618;13.488;2023-05-29T04:22:11;13.00;11.60
13850;DHT22;6995;52.618;13.488;2023-05-29T04:24:36;13.10;10.50
13850;DHT22;6995;52.618;13.488;2023-05-29T04:27:02;13.20;8.90
13850;DHT22;6995;52.618;13.488;2023-05-29T04:29:31;13.40;30.20
13850;DHT22;6995;52.618;13.488;2023-05-29T04:31:59;13.50;6.70
13850;DHT22;6995;52.618;13.488;2023-05-29T04:34:28;13.60;7.00
13850;DHT22;6995;52.618;13.488;2023-05-29T04:36:56;13.70;4.90
13850;DHT22;6995;52.618;13.488;2023-05-29T04:39:23;13.80;4.20
13850;DHT22;6995;52.618;13.488;2023-05-29T04:41:50;13.80;1.00
13850;DHT22;6995;52.618;13.488;2023-05-29T04:44:17;13.90;1.00
13850;DHT22;6995;52.618;13.488;2023-05-29T04:46:42;14.10;1.00
13850;DHT22;6995;52.618;13.488;2023-05-29T04:49:11;14.10;1.00
13850;DHT22;6995;52.618;13.488;2023-05-29T04:51:38;14.10;1.00
13850;DHT22;6995;52.618;13.488;2023-05-29T04:54:07;14.10;1.00
13850;DHT22;6995;52.618;13.488;2023-05-29T04:56:34;14.00;1.00
13850;DHT22;6995;52.618;13.488;2023-05-29T04:59:00;14.00;1.00
13850;DHT22;6995;52.618;13.488;2023-05-29T05:01:25;14.00;1.00
13850;DHT22;6995;52.618;13.488;2023-05-29T05:03:51;14.10;1.00
13850;DHT22;6995;52.618;13.488;2023-05-29T05:06:23;14.20;1.00
13850;DHT22;6995;52.618;13.488;2023-05-29T05:08:51;14.20;1.00
13850;DHT22;6995;52.618;13.488;2023-05-29T05:11:17;14.40;1.00
13850;DHT22;6995;52.618;13.488;2023-05-29T05:13:43;14.40;1.00
13850;DHT22;6995;52.618;13.488;2023-05-29T05:16:09;14.50;1.00
13850;DHT22;6995;52.618;13.488;2023-05-29T05:18:35;14.60;1.00
13850;DHT22;6995;52.618;13.488;2023-05-29T05:21:01;14.80;1.00
13850;DHT22;6995;52.618;13.488;2023-05-29T05:23:28;15.00;1.00
13850;DHT22;6995;52.618;13.488;2023-05-29T05:25:54;15.10;1.00
13850;DHT22;6995;52.618;13.488;2023-05-29T05:28:19;15.20;1.00
13850;DHT22;6995;52.618;13.488;2023-05-29T05:30:45;15.30;1.00
13850;DHT22;6995;52.618;13.488;2023-05-29T05:33:11;15.40;1.00
13850;DHT22;6995;52.618;13.488;2023-05-29T05:35:37;15.60;1.00
13850;DHT22;6995;52.618;13.488;2023-05-29T05:38:02;15.80;1.00
13850;DHT22;6995;52.618;13.488;2023-05-29T05:40:28;15.80;1.00
13850;DHT22;6995;52.618;13.488;2023-05-29T05:42:54;15.90;1.00
13850;DHT22;6995;52.618;13.488;2023-05-29T05:45:20;15.90;1.00
13850;DHT22;6995;52.618;13.488;2023-05-29T05:47:46;15.90;1.00
13850;DHT22;6995;52.618;13.488;2023-05-29T05:50:12;16.00;1.00
13850;DHT22;6995;52.618;13.488;2023-05-29T05:52:45;16.00;1.00
13850;DHT22;6995;52.618;13.488;2023-05-29T05:55:10;16.00;1.00
13850;DHT22;6995;52.618;13.488;2023-05-29T05:57:36;16.30;1.00
13850;DHT22;6995;52.618;13.488;2023-05-29T06:00:05;16.60;1.00
13850;DHT22;6995;52.618;13.488;2023-05-29T06:02:40;16.80;1.00
13850;DHT22;6995;52.618;13.488;2023-05-29T06:05:11;17.10;1.00
13850;DHT22;6995;52.618;13.488;2023-05-29T06:07:37;17.30;1.00
13850;DHT22;6995;52.618;13.488;2023-05-29T06:10:06;17.30;1.00
13850;DHT22;6995;52.618;13.488;2023-05-29T06:12:33;17.50;1.00
13850;DHT22;6995;52.618;13.488;2023-05-29T06:14:59;17.50;1.00
13850;DHT22;6995;52.618;13.488;2023-05-29T06:17:25;17.50;1.00
13850;DHT22;6995;52.618;13.488;2023-05-29T06:19:52;17.70;1.00
13850;DHT22;6995;52.618;13.488;2023-05-29T06:22:18;17.80;1.00
13850;DHT22;6995;52.618;13.488;2023-05-29T06:24:44;18.00;1.00
13850;DHT22;6995;52.618;13.488;2023-05-29T06:27:10;18.00;1.00
13850;DHT22;6995;52.618;13.488;2023-05-29T06:29:35;18.00;1.00
13850;DHT22;6995;52.618;13.488;2023-05-29T06:32:01;18.10;1.00
13850;DHT22;6995;52.618;13.488;2023-05-29T06:34:27;18.50;1.00
13850;DHT22;6995;52.618;13.488;2023-05-29T06:37:05;18.70;1.00
13850;DHT22;6995;52.618;13.488;2023-05-29T06:39:30;18.90;1.00
13850;DHT22;6995;52.618;13.488;2023-05-29T06:41:59;18.80;1.00
13850;DHT22;6995;52.618;13.488;2023-05-29T06:44:26;18.80;1.00
13850;DHT22;6995;52.618;13.488;2023-05-29T06:46:52;19.00;1.00
13850;DHT22;6995;52.618;13.488;2023-05-29T06:49:18;19.10;1.00
13850;DHT22;6995;52.618;13.488;2023-05-29T06:51:44;19.20;1.00
13850;DHT22;6995;52.618;13.488;2023-05-29T06:54:10;19.10;1.00
13850;DHT22;6995;52.618;13.488;2023-05-29T06:56:36;19.10;1.00
13850;DHT22;6995;52.618;13.488;2023-05-29T06:59:01;19.00;1.00
13850;DHT22;6995;52.618;13.488;2023-05-29T07:01:27;18.90;1.00
13850;DHT22;6995;52.618;13.488;2023-05-29T07:03:55;18.90;1.00
13850;DHT22;6995;52.618;13.488;2023-05-29T07:06:21;19.00;1.00
13850;DHT22;6995;52.618;13.488;2023-05-29T07:08:47;19.20;1.00
13850;DHT22;6995;52.618;13.488;2023-05-29T07:11:12;19.40;1.00
13850;DHT22;6995;52.618;13.488;2023-05-29T07:13:38;19.50;1.00
13850;DHT22;6995;52.618;13.488;2023-05-29T07:16:06;19.70;1.00
13850;DHT22;6995;52.618;13.488;2023-05-29T07:18:32;19.60;1.00
13850;DHT22;6995;52.618;13.488;2023-05-29T07:21:03;19.80;1.00
13850;DHT22;6995;52.618;13.488;2023-05-29T07:23:29;20.00;1.00
13850;DHT22;6995;52.618;13.488;2023-05-29T07:25:54;20.00;1.00
13850;DHT22;6995;52.618;13.488;2023-05-29T07:28:20;19.90;1.00
13850;DHT22;6995;52.618;13.488;2023-05-29T07:30:46;19.70;1.00
13850;DHT22;6995;52.618;13.488;2023-05-29T07:33:11;20.10;1.00
13850;DHT22;6995;52.618;13.488;2023-05-29T07:35:37;20.30;1.00
13850;DHT22;6995;52.618;13.488;2023-05-29T07:38:02;20.20;1.00
13850;DHT22;6995;52.618;13.488;2023-05-29T07:40:34;20.00;1.00
13850;DHT22;6995;52.618;13.488;2023-05-29T07:43:00;19.90;1.00
13850;DHT22;6995;52.618;13.488;2023-05-29T07:45:26;20.10;1.00
13850;DHT22;6995;52.618;13.488;2023-05-29T07:47:52;20.00;1.00
13850;DHT22;6995;52.618;13.488;2023-05-29T07:50:17;20.10;1.00
13850;DHT22;6995;52.618;13.488;2023-05-29T07:52:43;20.10;1.00
13850;DHT22;6995;52.618;13.488;2023-05-29T07:55:09;20.40;1.00
13850;DHT22;6995;52.618;13.488;2023-05-29T07:57:35;20.90;1.00
13850;DHT22;6995;52.618;13.488;2023-05-29T08:00:01;21.00;1.00
13850;DHT22;6995;52.618;13.488;2023-05-29T08:02:34;20.90;1.00
13850;DHT22;6995;52.618;13.488;2023-05-29T08:04:59;20.80;1.00
13850;DHT22;6995;52.618;13.488;2023-05-29T08:07:25;20.40;1.00
13850;DHT22;6995;52.618;13.488;2023-05-29T08:09:53;20.30;1.00
13850;DHT22;6995;52.618;13.488;2023-05-29T08:12:19;20.20;1.00
13850;DHT22;6995;52.618;13.488;2023-05-29T08:14:44;20.20;1.00
13850;DHT22;6995;52.618;13.488;2023-05-29T08:17:10;20.20;1.00
13850;DHT22;6995;52.618;13.488;2023-05-29T08:19:36;20.10;1.00
13850;DHT22;6995;52.618;13.488;2023-05-29T08:22:01;20.10;1.00
13850;DHT22;6995;52.618;13.488;2023-05-29T08:24:27;20.10;1.00
13850;DHT22;6995;52.618;13.488;2023-05-29T08:26:53;20.10;1.00
13850;DHT22;6995;52.618;13.488;2023-05-29T08:29:19;20.10;1.00
13850;DHT22;6995;52.618;13.488;2023-05-29T08:31:45;19.50;1.00
13850;DHT22;6995;52.618;13.488;2023-05-29T08:34:11;19.40;1.00
13850;DHT22;6995;52.618;13.488;2023-05-29T08:36:37;19.70;1.00
13850;DHT22;6995;52.618;13.488;2023-05-29T08:39:02;19.80;1.00
13850;DHT22;6995;52.618;13.488;2023-05-29T08:41:57;19.70;1.00
13850;DHT22;6995;52.618;13.488;2023-05-29T08:44:26;19.80;1.00
13850;DHT22;6995;52.618;13.488;2023-05-29T08:46:55;19.80;1.00
13850;DHT22;6995;52.618;13.488;2023-05-29T08:49:22;19.90;1.00
13850;DHT22;6995;52.618;13.488;2023-05-29T08:51:51;20.00;1.00
13850;DHT22;6995;52.618;13.488;2023-05-29T08:54:18;19.90;1.00
13850;DHT22;6995;52.618;13.488;2023-05-29T08:56:44;20.10;1.00
13850;DHT22;6995;52.618;13.488;2023-05-29T08:59:11;19.80;1.00
13850;DHT22;6995;52.618;13.488;2023-05-29T09:01:38;19.90;1.00
13850;DHT22;6995;52.618;13.488;2023-05-29T09:04:04;20.10;1.00
13850;DHT22;6995;52.618;13.488;2023-05-29T09:06:30;20.30;1.00
13850;DHT22;6995;52.618;13.488;2023-05-29T09:08:56;20.40;1.00
13850;DHT22;6995;52.618;13.488;2023-05-29T09:11:23;20.40;1.00
13850;DHT22;6995;52.618;13.488;2023-05-29T09:13:49;20.60;1.00
13850;DHT22;6995;52.618;13.488;2023-05-29T09:16:18;20.60;1.00
13850;DHT22;6995;52.618;13.488;2023-05-29T09:18:43;20.70;1.00
13850;DHT22;6995;52.618;13.488;2023-05-29T09:21:25;20.60;1.00
13850;DHT22;6995;52.618;13.488;2023-05-29T09:23:53;20.90;1.00
13850;DHT22;6995;52.618;13.488;2023-05-29T09:26:21;21.30;1.00
13850;DHT22;6995;52.618;13.488;2023-05-29T09:28:49;21.50;1.00
13850;DHT22;6995;52.618;13.488;2023-05-29T09:31:15;21.60;1.00
13850;DHT22;6995;52.618;13.488;2023-05-29T09:33:49;21.70;1.00
13850;DHT22;6995;52.618;13.488;2023-05-29T09:36:22;21.70;1.00
13850;DHT22;6995;52.618;13.488;2023-05-29T09:38:48;21.80;1.00
13850;DHT22;6995;52.618;13.488;2023-05-29T09:41:21;21.90;1.00
13850;DHT22;6995;52.618;13.488;2023-05-29T09:43:49;22.00;1.00
13850;DHT22;6995;52.618;13.488;2023-05-29T09:46:18;21.90;1.00
13850;DHT22;6995;52.618;13.488;2023-05-29T09:48:44;21.60;1.00
13850;DHT22;6995;52.618;13.488;2023-05-29T09:51:21;21.60;1.00
13850;DHT22;6995;52.618;13.488;2023-05-29T09:53:50;21.60;1.00
13850;DHT22;6995;52.618;13.488;2023-05-29T09:56:22;21.70;1.00
13850;DHT22;6995;52.618;13.488;2023-05-29T09:58:49;21.70;1.00
13850;DHT22;6995;52.618;13.488;2023-05-29T10:01:15;21.70;1.00
13850;DHT22;6995;52.618;13.488;2023-05-29T10:03:43;21.60;1.00
13850;DHT22;6995;52.618;13.488;2023-05-29T10:06:16;21.70;1.00
13850;DHT22;6995;52.618;13.488;2023-05-29T10:08:46;22.00;1.00
13850;DHT22;6995;52.618;13.488;2023-05-29T10:11:20;22.00;1.00
13850;DHT22;6995;52.618;13.488;2023-05-29T10:13:51;22.00;1.00
13850;DHT22;6995;52.618;13.488;2023-05-29T10:16:20;22.20;1.00
13850;DHT22;6995;52.618;13.488;2023-05-29T10:18:52;22.50;1.00
13850;DHT22;6995;52.618;13.488;2023-05-29T10:21:21;22.70;1.00
13850;DHT22;6995;52.618;13.488;2023-05-29T10:23:48;22.30;1.00
13850;DHT22;6995;52.618;13.488;2023-05-29T10:26:19;22.20;1.00
13850;DHT22;6995;52.618;13.488;2023-05-29T10:31:43;22.30;1.00
13850;DHT22;6995;52.618;13.488;2023-05-29T10:34:37;22.30;1.00
13850;DHT22;6995;52.618;13.488;2023-05-29T10:37:24;22.60;1.00
13850;DHT22;6995;52.618;13.488;2023-05-29T10:39:52;22.30;1.00
13850;DHT22;6995;52.618;13.488;2023-05-29T10:42:43;22.00;1.00
13850;DHT22;6995;52.618;13.488;2023-05-29T10:45:10;22.00;1.00
13850;DHT22;6995;52.618;13.488;2023-05-29T10:47:38;22.10;1.00
13850;DHT22;6995;52.618;13.488;2023-05-29T10:50:05;22.10;1.00
13850;DHT22;6995;52.618;13.488;2023-05-29T10:52:32;21.90;1.00
13850;DHT22;6995;52.618;13.488;2023-05-29T10:54:57;22.30;1.00
13850;DHT22;6995;52.618;13.488;2023-05-29T10:57:24;22.80;1.00
13850;DHT22;6995;52.618;13.488;2023-05-29T11:00:19;23.20;1.00
13850;DHT22;6995;52.618;13.488;2023-05-29T11:02:48;23.30;1.00
13850;DHT22;6995;52.618;13.488;2023-05-29T11:05:24;23.30;1.00
13850;DHT22;6995;52.618;13.488;2023-05-29T11:10:42;22.90;1.00
13850;DHT22;6995;52.618;13.488;2023-05-29T11:13:09;23.10;1.00
13850;DHT22;6995;52.618;13.488;2023-05-29T11:15:36;23.10;1.00
13850;DHT22;6995;52.618;13.488;2023-05-29T11:18:06;23.60;1.00
13850;DHT22;6995;52.618;13.488;2023-05-29T11:20:53;23.40;1.00
13850;DHT22;6995;52.618;13.488;2023-05-29T11:23:22;23.20;1.00
13850;DHT22;6995;52.618;13.488;2023-05-29T11:25:51;23.00;1.00
13850;DHT22;6995;52.618;13.488;2023-05-29T11:28:17;22.80;1.00
13850;DHT22;6995;52.618;13.488;2023-05-29T11:30:48;22.90;1.00
13850;DHT22;6995;52.618;13.488;2023-05-29T11:33:24;22.70;1.00
13850;DHT22;6995;52.618;13.488;2023-05-29T11:35:58;22.40;1.00
13850;DHT22;6995;52.618;13.488;2023-05-29T11:38:25;22.60;1.00
13850;DHT22;6995;52.618;13.488;2023-05-29T11:40:55;22.50;1.00
13850;DHT22;6995;52.618;13.488;2023-05-29T11:43:22;22.80;1.00
13850;DHT22;6995;52.618;13.488;2023-05-29T11:45:47;22.60;1.00
13850;DHT22;6995;52.618;13.488;2023-05-29T11:48:13;22.80;1.00
13850;DHT22;6995;52.618;13.488;2023-05-29T11:50:39;23.70;1.00
13850;DHT22;6995;52.618;13.488;2023-05-29T11:53:06;23.70;1.00
13850;DHT22;6995;52.618;13.488;2023-05-29T11:55:32;23.90;1.00
13850;DHT22;6995;52.618;13.488;2023-05-29T11:58:00;24.20;1.00
13850;DHT22;6995;52.618;13.488;2023-05-29T12:00:33;24.40;1.00
13850;DHT22;6995;52.618;13.488;2023-05-29T12:03:00;24.60;1.00
13850;DHT22;6995;52.618;13.488;2023-05-29T12:05:44;24.80;1.00
13850;DHT22;6995;52.618;13.488;2023-05-29T12:08:10;24.30;1.00
13850;DHT22;6995;52.618;13.488;2023-05-29T12:10:36;25.10;1.00
13850;DHT22;6995;52.618;13.488;2023-05-29T12:13:27;25.00;1.00
13850;DHT22;6995;52.618;13.488;2023-05-29T12:15:59;24.60;1.00
13850;DHT22;6995;52.618;13.488;2023-05-29T12:18:26;25.20;1.00
13850;DHT22;6995;52.618;13.488;2023-05-29T12:21:00;25.00;1.00
13850;DHT22;6995;52.618;13.488;2023-05-29T12:23:30;24.60;1.00
13850;DHT22;6995;52.618;13.488;2023-05-29T12:25:56;24.60;1.00
13850;DHT22;6995;52.618;13.488;2023-05-29T12:28:24;24.00;1.00
13850;DHT22;6995;52.618;13.488;2023-05-29T12:30:50;23.70;1.00
13850;DHT22;6995;52.618;13.488;2023-05-29T12:33:29;23.70;1.00
13850;DHT22;6995;52.618;13.488;2023-05-29T12:36:08;23.90;1.00
13850;DHT22;6995;52.618;13.488;2023-05-29T12:38:50;24.40;1.00
13850;DHT22;6995;52.618;13.488;2023-05-29T12:41:42;25.10;1.00
13850;DHT22;6995;52.618;13.488;2023-05-29T12:44:08;25.40;1.00
13850;DHT22;6995;52.618;13.488;2023-05-29T12:46:39;26.00;1.00
13850;DHT22;6995;52.618;13.488;2023-05-29T12:49:12;26.10;1.00
13850;DHT22;6995;52.618;13.488;2023-05-29T12:51:41;25.80;1.00
13850;DHT22;6995;52.618;13.488;2023-05-29T12:54:09;25.30;1.00
13850;DHT22;6995;52.618;13.488;2023-05-29T12:56:35;24.60;1.00
13850;DHT22;6995;52.618;13.488;2023-05-29T12:59:01;25.20;1.00
13850;DHT22;6995;52.618;13.488;2023-05-29T13:01:26;25.40;1.00
13850;DHT22;6995;52.618;13.488;2023-05-29T13:03:52;25.30;1.00
13850;DHT22;6995;52.618;13.488;2023-05-29T13:06:18;25.50;1.00
13850;DHT22;6995;52.618;13.488;2023-05-29T13:08:43;26.30;1.00
13850;DHT22;6995;52.618;13.488;2023-05-29T13:11:09;26.00;1.00
13850;DHT22;6995;52.618;13.488;2023-05-29T13:13:35;26.10;1.00
13850;DHT22;6995;52.618;13.488;2023-05-29T13:16:00;25.40;1.00
13850;DHT22;6995;52.618;13.488;2023-05-29T13:18:26;26.20;1.00
13850;DHT22;6995;52.618;13.488;2023-05-29T13:20:51;27.30;1.00
13850;DHT22;6995;52.618;13.488;2023-05-29T13:23:17;27.10;1.00
13850;DHT22;6995;52.618;13.488;2023-05-29T13:25:43;27.30;1.00
13850;DHT22;6995;52.618;13.488;2023-05-29T13:28:08;27.00;1.00
13850;DHT22;6995;52.618;13.488;2023-05-29T13:30:34;27.90;1.00
13850;DHT22;6995;52.618;13.488;2023-05-29T13:33:00;27.90;1.00
13850;DHT22;6995;52.618;13.488;2023-05-29T13:35:25;28.10;1.00
13850;DHT22;6995;52.618;13.488;2023-05-29T13:37:51;27.30;1.00
13850;DHT22;6995;52.618;13.488;2023-05-29T13:40:20;27.80;1.00
13850;DHT22;6995;52.618;13.488;2023-05-29T13:42:45;29.00;1.00
13850;DHT22;6995;52.618;13.488;2023-05-29T13:45:11;29.30;1.00
13850;DHT22;6995;52.618;13.488;2023-05-29T13:47:37;29.40;1.00
13850;DHT22;6995;52.618;13.488;2023-05-29T13:50:03;29.70;1.00
13850;DHT22;6995;52.618;13.488;2023-05-29T13:52:32;29.70;1.00
13850;DHT22;6995;52.618;13.488;2023-05-29T13:54:58;28.90;1.00
13850;DHT22;6995;52.618;13.488;2023-05-29T13:57:29;28.60;1.00
13850;DHT22;6995;52.618;13.488;2023-05-29T13:59:56;29.10;1.00
13850;DHT22;6995;52.618;13.488;2023-05-29T14:02:22;29.60;1.00
13850;DHT22;6995;52.618;13.488;2023-05-29T14:04:48;29.40;1.00
13850;DHT22;6995;52.618;13.488;2023-05-29T14:07:13;29.40;1.00
13850;DHT22;6995;52.618;13.488;2023-05-29T14:09:39;28.90;1.00
13850;DHT22;6995;52.618;13.488;2023-05-29T14:12:05;27.90;1.00
13850;DHT22;6995;52.618;13.488;2023-05-29T14:14:32;28.00;1.00
13850;DHT22;6995;52.618;13.488;2023-05-29T14:16:58;26.80;1.00
13850;DHT22;6995;52.618;13.488;2023-05-29T14:19:23;27.70;1.00
13850;DHT22;6995;52.618;13.488;2023-05-29T14:21:49;28.00;1.00
13850;DHT22;6995;52.618;13.488;2023-05-29T14:24:15;28.60;1.00
13850;DHT22;6995;52.618;13.488;2023-05-29T14:26:43;27.40;1.00
13850;DHT22;6995;52.618;13.488;2023-05-29T14:29:11;26.80;1.00
13850;DHT22;6995;52.618;13.488;2023-05-29T14:31:38;27.00;1.00
13850;DHT22;6995;52.618;13.488;2023-05-29T14:34:04;27.90;1.00
13850;DHT22;6995;52.618;13.488;2023-05-29T14:36:30;29.00;1.00
13850;DHT22;6995;52.618;13.488;2023-05-29T14:38:55;30.10;1.00
13850;DHT22;6995;52.618;13.488;2023-05-29T14:41:21;29.90;1.00
13850;DHT22;6995;52.618;13.488;2023-05-29T14:43:46;28.50;1.00
13850;DHT22;6995;52.618;13.488;2023-05-29T14:46:12;29.20;1.00
13850;DHT22;6995;52.618;13.488;2023-05-29T14:48:38;30.20;1.00
13850;DHT22;6995;52.618;13.488;2023-05-29T14:51:04;30.10;1.00
13850;DHT22;6995;52.618;13.488;2023-05-29T14:53:30;29.90;1.00
13850;DHT22;6995;52.618;13.488;2023-05-29T14:55:57;30.10;1.00
13850;DHT22;6995;52.618;13.488;2023-05-29T14:58:22;29.40;1.00
13850;DHT22;6995;52.618;13.488;2023-05-29T15:00:48;28.90;1.00
13850;DHT22;6995;52.618;13.488;2023-05-29T15:03:14;29.50;1.00
13850;DHT22;6995;52.618;13.488;2023-05-29T15:05:40;29.60;1.00
13850;DHT22;6995;52.618;13.488;2023-05-29T15:08:05;29.60;1.00
13850;DHT22;6995;52.618;13.488;2023-05-29T15:10:34;29.00;1.00
13850;DHT22;6995;52.618;13.488;2023-05-29T15:13:00;29.10;1.00
13850;DHT22;6995;52.618;13.488;2023-05-29T15:15:27;29.80;1.00
13850;DHT22;6995;52.618;13.488;2023-05-29T15:17:54;30.40;1.00
13850;DHT22;6995;52.618;13.488;2023-05-29T15:20:25;29.90;1.00
13850;DHT22;6995;52.618;13.488;2023-05-29T15:22:51;28.20;1.00
13850;DHT22;6995;52.618;13.488;2023-05-29T15:25:19;26.90;1.00
13850;DHT22;6995;52.618;13.488;2023-05-29T15:27:46;26.20;1.00
13850;DHT22;6995;52.618;13.488;2023-05-29T15:32:39;26.80;1.00
13850;DHT22;6995;52.618;13.488;2023-05-29T15:35:07;26.80;1.00
13850;DHT22;6995;52.618;13.488;2023-05-29T15:37:33;28.60;1.00
13850;DHT22;6995;52.618;13.488;2023-05-29T15:39:58;29.50;1.00
13850;DHT22;6995;52.618;13.488;2023-05-29T15:42:24;29.90;1.00
13850;DHT22;6995;52.618;13.488;2023-05-29T15:44:50;30.20;1.00
13850;DHT22;6995;52.618;13.488;2023-05-29T15:47:16;30.10;1.00
13850;DHT22;6995;52.618;13.488;2023-05-29T15:49:41;28.80;1.00
13850;DHT22;6995;52.618;13.488;2023-05-29T15:52:07;27.20;1.00
13850;DHT22;6995;52.618;13.488;2023-05-29T15:54:33;26.60;1.00
13850;DHT22;6995;52.618;13.488;2023-05-29T15:56:58;26.20;1.00
13850;DHT22;6995;52.618;13.488;2023-05-29T15:59:30;25.60;1.00
13850;DHT22;6995;52.618;13.488;2023-05-29T16:01:56;25.60;1.00